createdAt,value
2023-05-21T00:03:02.074Z,13.30
2023-05-21T00:07:04.173Z,13.30
2023-05-21T00:11:06.640Z,13.10
2023-05-21T00:15:08.933Z,13.10
2023-05-21T00:19:10.702Z,13.00
2023-05-21T00:23:12.748Z,13.00
2023-05-21T00:27:14.513Z,12.90
2023-05-21T00:31:17.156Z,12.90
2023-05-21T00:35:19.515Z,12.90
2023-05-21T00:39:21.383Z,12.80
2023-05-21T00:43:26.178Z,12.70
2023-05-21T00:47:29.690Z,12.60
2023-05-21T00:51:31.594Z,12.60
2023-05-21T00:55:33.878Z,12.50
2023-05-21T00:59:35.787Z,12.50
2023-05-21T01:03:38.503Z,12.50
2023-05-21T01:07:41.777Z,12.50
2023-05-21T01:11:46.676Z,12.50
2023-05-21T01:15:50.040Z,12.50
2023-05-21T01:19:52.766Z,12.40
2023-05-21T01:23:54.574Z,12.40
2023-05-21T01:27:56.317Z,12.30
2023-05-21T01:32:34.150Z,12.30
2023-05-21T01:36:43.539Z,12.20
2023-05-21T01:40:54.385Z,12.10
2023-05-21T01:44:59.409Z,12.20
2023-05-21T01:49:01.869Z,12.10
2023-05-21T01:53:12.962Z,12.20
2023-05-21T01:57:14.728Z,12.20
2023-05-21T02:01:16.490Z,12.20
2023-05-21T02:05:18.661Z,12.30
2023-05-21T02:09:20.896Z,12.20
2023-05-21T02:13:25.829Z,12.20
2023-05-21T02:17:31.266Z,12.20
2023-05-21T02:21:33.042Z,12.20
2023-05-21T02:25:34.990Z,12.30
2023-05-21T02:29:37.060Z,12.20
2023-05-21T02:33:41.307Z,12.20
2023-05-21T02:37:43.973Z,12.20
2023-05-21T02:41:47.529Z,12.10
2023-05-21T02:45:51.270Z,12.20
2023-05-21T02:49:53.990Z,12.10
2023-05-21T02:53:55.860Z,12.10
2023-05-21T02:57:57.591Z,12.00
2023-05-21T03:01:59.312Z,12.00
2023-05-21T03:06:01.559Z,12.00
2023-05-21T03:10:03.402Z,12.10
2023-05-21T03:14:06.285Z,12.00
2023-05-21T03:18:08.111Z,11.90
2023-05-21T03:22:11.255Z,12.00
2023-05-21T03:26:13.984Z,11.90
2023-05-21T03:30:15.861Z,11.80
2023-05-21T03:34:20.017Z,11.80
2023-05-21T03:38:21.716Z,11.80
2023-05-21T03:42:23.510Z,11.70
2023-05-21T03:46:26.213Z,11.80
2023-05-21T03:50:28.460Z,11.70
2023-05-21T03:54:30.205Z,11.80
2023-05-21T03:58:32.786Z,11.80
2023-05-21T04:02:34.771Z,11.80
2023-05-21T04:06:36.819Z,11.80
2023-05-21T04:10:38.532Z,11.80
2023-05-21T04:14:40.347Z,11.80
2023-05-21T04:18:44.852Z,11.80
2023-05-21T04:22:47.382Z,11.90
2023-05-21T04:26:49.863Z,11.90
2023-05-21T04:30:51.651Z,12.00
2023-05-21T04:34:53.407Z,12.00
2023-05-21T04:38:55.701Z,12.00
2023-05-21T04:42:58.076Z,12.00
2023-05-21T04:47:00.461Z,12.10
2023-05-21T04:51:05.924Z,12.10
2023-05-21T04:55:08.850Z,12.10
2023-05-21T04:59:10.744Z,12.20
2023-05-21T05:03:13.298Z,12.30
2023-05-21T05:07:15.517Z,12.30
2023-05-21T05:11:17.316Z,12.40
2023-05-21T05:15:19.124Z,12.50
2023-05-21T05:19:20.985Z,12.50
2023-05-21T05:23:22.731Z,12.50
2023-05-21T05:27:24.416Z,12.60
2023-05-21T05:31:26.201Z,12.60
2023-05-21T05:35:27.965Z,12.80
2023-05-21T05:39:29.851Z,12.80
2023-05-21T05:43:31.809Z,13.00
2023-05-21T05:47:33.633Z,13.00
2023-05-21T05:51:36.051Z,13.00
2023-05-21T05:55:38.248Z,13.00
2023-05-21T05:59:40.266Z,13.00
2023-05-21T06:03:42.113Z,13.10
2023-05-21T06:07:43.963Z,13.20
2023-05-21T06:11:45.706Z,13.20
2023-05-21T06:15:47.448Z,13.20
2023-05-21T06:19:49.230Z,13.30
2023-05-21T06:23:50.982Z,13.30
2023-05-21T06:27:52.734Z,13.40
2023-05-21T06:31:54.424Z,13.50
2023-05-21T06:35:56.251Z,13.70
2023-05-21T06:39:57.969Z,13.80
2023-05-21T06:43:59.830Z,14.00
2023-05-21T06:48:01.593Z,14.00
2023-05-21T06:52:03.381Z,14.10
2023-05-21T06:56:05.522Z,14.30
2023-05-21T07:00:09.359Z,14.40
2023-05-21T07:04:11.183Z,14.50
2023-05-21T07:08:13.006Z,14.80
2023-05-21T07:12:14.725Z,14.90
2023-05-21T07:16:17.749Z,15.10
2023-05-21T07:20:19.621Z,15.40
2023-05-21T07:24:21.352Z,15.30
2023-05-21T07:28:23.179Z,15.30
2023-05-21T07:32:26.684Z,15.00
2023-05-21T07:36:29.516Z,15.10
2023-05-21T07:40:31.228Z,15.40
2023-05-21T07:44:33.003Z,15.40
2023-05-21T07:48:35.648Z,15.30
2023-05-21T07:52:37.676Z,15.50
2023-05-21T07:56:39.448Z,15.70
2023-05-21T08:00:47.263Z,15.80
2023-05-21T08:04:49.122Z,16.00
2023-05-21T08:08:50.893Z,16.20
2023-05-21T08:12:52.611Z,16.40
2023-05-21T08:16:54.687Z,16.60
2023-05-21T08:20:56.645Z,16.70
2023-05-21T08:24:58.402Z,17.20
2023-05-21T08:29:00.167Z,17.20
2023-05-21T08:33:02.386Z,17.40
2023-05-21T08:37:04.483Z,17.30
2023-05-21T08:41:07.728Z,17.80
2023-05-21T08:45:13.086Z,17.80
2023-05-21T08:49:18.594Z,17.90
2023-05-21T08:53:28.280Z,17.70
2023-05-21T08:57:31.847Z,18.10
2023-05-21T09:01:34.510Z,18.70
2023-05-21T09:05:42.911Z,18.70
2023-05-21T09:10:12.253Z,19.00
2023-05-21T09:14:15.515Z,19.10
2023-05-21T09:18:17.414Z,19.30
2023-05-21T09:22:23.506Z,19.40
2023-05-21T09:26:26.504Z,19.00
2023-05-21T09:30:30.184Z,19.20
2023-05-21T09:34:36.656Z,19.20
2023-05-21T09:38:38.601Z,19.90
2023-05-21T09:42:41.419Z,19.40
2023-05-21T09:46:43.228Z,19.50
2023-05-21T09:50:45.799Z,20.30
2023-05-21T09:54:47.527Z,20.80
2023-05-21T09:58:55.067Z,20.90
2023-05-21T10:03:00.845Z,21.50
2023-05-21T10:07:02.711Z,21.40
2023-05-21T10:11:07.242Z,21.40
2023-05-21T10:15:11.397Z,21.40
2023-05-21T10:19:15.608Z,21.90
2023-05-21T10:23:18.648Z,21.90
2023-05-21T10:27:22.570Z,22.10
2023-05-21T10:31:26.562Z,22.00
2023-05-21T10:35:29.633Z,21.70
2023-05-21T10:39:33.622Z,21.60
2023-05-21T10:44:14.900Z,21.50
2023-05-21T10:48:43.573Z,21.80
2023-05-21T10:53:12.933Z,22.30
2023-05-21T10:57:14.674Z,22.50
2023-05-21T11:01:19.276Z,22.00
2023-05-21T11:05:51.551Z,22.30
2023-05-21T11:09:53.337Z,22.60
2023-05-21T11:13:55.157Z,22.40
2023-05-21T11:17:57.090Z,22.50
2023-05-21T11:21:58.982Z,21.90
2023-05-21T11:26:03.518Z,22.20
2023-05-21T11:30:09.100Z,22.10
2023-05-21T11:34:14.873Z,22.50
2023-05-21T11:38:18.039Z,22.70
2023-05-21T11:42:39.260Z,22.70
2023-05-21T11:46:41.220Z,23.10
2023-05-21T11:50:43.084Z,23.30
2023-05-21T11:54:48.321Z,23.20
2023-05-21T11:58:50.050Z,23.20
2023-05-21T12:02:52.851Z,23.20
2023-05-21T12:06:58.332Z,23.90
2023-05-21T12:11:01.690Z,24.90
2023-05-21T12:15:04.195Z,24.70
2023-05-21T12:19:06.723Z,25.30
2023-05-21T12:23:08.538Z,24.00
2023-05-21T12:27:13.161Z,23.70
2023-05-21T12:31:16.136Z,24.50
2023-05-21T12:35:22.744Z,25.80
2023-05-21T12:39:24.901Z,25.10
2023-05-21T12:43:32.075Z,25.90
2023-05-21T12:47:34.505Z,26.50
2023-05-21T12:51:40.044Z,26.40
2023-05-21T12:55:41.778Z,26.30
2023-05-21T12:59:52.262Z,25.80
2023-05-21T13:03:54.031Z,24.60
2023-05-21T13:07:55.804Z,24.50
2023-05-21T13:11:57.557Z,24.10
2023-05-21T13:16:01.604Z,24.40
2023-05-21T13:20:18.209Z,24.90
2023-05-21T13:24:20.001Z,23.70
2023-05-21T13:28:23.562Z,23.90
2023-05-21T13:32:25.517Z,24.40
2023-05-21T13:36:27.327Z,24.60
2023-05-21T13:40:29.150Z,24.00
2023-05-21T13:44:33.257Z,23.50
2023-05-21T13:48:35.276Z,23.30
2023-05-21T13:52:38.122Z,23.50
2023-05-21T13:56:39.967Z,23.80
2023-05-21T14:00:42.989Z,24.20
2023-05-21T14:04:45.289Z,24.70
2023-05-21T14:08:47.088Z,25.50
2023-05-21T14:12:48.876Z,25.70
2023-05-21T14:16:51.499Z,26.10
2023-05-21T14:20:53.804Z,26.50
2023-05-21T14:24:56.081Z,26.40
2023-05-21T14:28:57.996Z,26.50
2023-05-21T14:32:59.831Z,26.40
2023-05-21T14:37:01.608Z,25.70
2023-05-21T14:41:03.420Z,25.60
2023-05-21T14:45:18.012Z,25.70
2023-05-21T14:49:20.774Z,26.20
2023-05-21T14:53:22.609Z,27.10
2023-05-21T14:57:24.353Z,26.50
2023-05-21T15:01:26.166Z,26.60
2023-05-21T15:05:29.373Z,26.10
2023-05-21T15:09:31.130Z,26.60
2023-05-21T15:13:33.033Z,25.30
2023-05-21T15:17:35.843Z,24.90
2023-05-21T15:21:38.483Z,24.70
2023-05-21T15:25:40.309Z,23.90
2023-05-21T15:29:42.071Z,24.00
2023-05-21T15:33:43.864Z,23.60
2023-05-21T15:37:46.074Z,23.60
2023-05-21T15:41:47.902Z,23.50
2023-05-21T15:45:49.624Z,23.30
2023-05-21T15:49:51.623Z,23.10
2023-05-21T15:53:53.516Z,23.00
2023-05-21T15:57:55.526Z,23.10
2023-05-21T16:01:57.589Z,23.10
2023-05-21T16:05:59.695Z,22.90
2023-05-21T16:10:01.576Z,22.90
2023-05-21T16:14:03.302Z,22.70
2023-05-21T16:18:05.148Z,22.70
2023-05-21T16:26:09.963Z,22.60
2023-05-21T16:30:12.152Z,22.60
2023-05-21T16:34:13.897Z,22.60
2023-05-21T16:38:16.169Z,22.60
2023-05-21T16:42:17.925Z,22.40
2023-05-21T16:46:20.009Z,22.40
2023-05-21T16:50:21.879Z,22.40
2023-05-21T16:54:23.663Z,22.40
2023-05-21T16:58:25.556Z,22.40
2023-05-21T17:02:27.454Z,22.30
2023-05-21T17:06:29.218Z,22.20
2023-05-21T17:10:33.090Z,22.10
2023-05-21T17:14:36.244Z,22.10
2023-05-21T17:18:39.192Z,22.10
2023-05-21T17:22:41.021Z,22.20
2023-05-21T17:26:42.902Z,22.10
2023-05-21T17:30:45.593Z,22.10
2023-05-21T17:34:48.135Z,22.00
2023-05-21T17:38:50.728Z,22.00
2023-05-21T17:42:52.790Z,22.00
2023-05-21T17:46:56.401Z,22.00
2023-05-21T17:50:58.510Z,21.90
2023-05-21T17:55:01.159Z,22.00
2023-05-21T17:59:02.893Z,21.90
2023-05-21T18:03:04.770Z,21.90
2023-05-21T18:07:07.168Z,21.80
2023-05-21T18:11:08.907Z,21.70
2023-05-21T18:15:10.828Z,21.70
2023-05-21T18:19:13.013Z,21.70
2023-05-21T18:23:14.853Z,21.60
2023-05-21T18:27:16.632Z,21.50
2023-05-21T18:31:19.058Z,21.40
2023-05-21T18:35:20.882Z,21.30
2023-05-21T18:39:24.620Z,21.20
2023-05-21T18:43:26.493Z,21.10
2023-05-21T18:47:28.277Z,21.00
2023-05-21T18:51:30.065Z,21.00
2023-05-21T18:55:31.974Z,20.90
2023-05-21T18:59:33.791Z,20.80
2023-05-21T19:03:35.608Z,20.80
2023-05-21T19:07:37.378Z,20.80
2023-05-21T19:11:39.266Z,20.80
2023-05-21T19:15:41.213Z,20.80
2023-05-21T19:19:42.996Z,20.80
2023-05-21T19:23:52.487Z,20.60
2023-05-21T19:27:56.332Z,20.60
2023-05-21T19:31:59.057Z,20.40
2023-05-21T19:36:00.907Z,20.40
2023-05-21T19:40:02.702Z,20.30
2023-05-21T19:44:04.454Z,20.20
2023-05-21T19:48:06.809Z,20.10
2023-05-21T19:52:10.267Z,20.20
2023-05-21T19:56:12.020Z,20.10
2023-05-21T20:00:14.461Z,19.90
2023-05-21T20:04:16.335Z,19.70
2023-05-21T20:08:18.166Z,19.50
2023-05-21T20:12:19.899Z,19.40
2023-05-21T20:16:23.200Z,19.20
2023-05-21T20:20:26.647Z,18.90
2023-05-21T20:24:28.451Z,18.70
2023-05-21T20:28:30.291Z,18.70
2023-05-21T20:32:32.075Z,18.30
2023-05-21T20:36:35.108Z,18.30
2023-05-21T20:40:37.090Z,18.10
2023-05-21T20:44:39.517Z,18.20
2023-05-21T20:48:41.736Z,18.00
2023-05-21T20:52:46.249Z,18.00
2023-05-21T20:56:51.030Z,17.80
2023-05-21T21:00:55.060Z,17.70
2023-05-21T21:04:57.823Z,17.70
2023-05-21T21:08:59.565Z,17.50
2023-05-21T21:13:01.687Z,17.60
2023-05-21T21:17:03.483Z,17.50
2023-05-21T21:21:06.163Z,17.60
2023-05-21T21:25:08.379Z,17.50
2023-05-21T21:29:10.273Z,17.40
2023-05-21T21:33:14.100Z,17.30
2023-05-21T21:37:16.476Z,17.30
2023-05-21T21:41:20.179Z,17.20
2023-05-21T21:45:22.069Z,17.20
2023-05-21T21:49:23.760Z,17.10
2023-05-21T21:53:25.540Z,17.10
2023-05-21T21:57:29.342Z,17.00
2023-05-21T22:01:31.242Z,17.00
2023-05-21T22:05:33.901Z,17.00
2023-05-21T22:09:35.739Z,17.00
2023-05-21T22:13:37.664Z,16.90
2023-05-21T22:17:40.097Z,16.90
2023-05-21T22:21:42.153Z,16.90
2023-05-21T22:25:43.939Z,16.90
2023-05-21T22:29:45.634Z,16.90
2023-05-21T22:33:47.373Z,17.00
2023-05-21T22:37:49.131Z,17.00
2023-05-21T22:41:50.899Z,17.00
2023-05-21T22:45:52.728Z,17.10
2023-05-21T22:49:54.489Z,17.10
2023-05-21T22:53:56.220Z,17.10
2023-05-21T22:57:57.950Z,16.90
2023-05-21T23:01:59.952Z,16.80
2023-05-21T23:06:01.747Z,16.80
2023-05-21T23:10:03.946Z,16.80
2023-05-21T23:14:05.679Z,16.80
2023-05-21T23:18:08.352Z,16.70
2023-05-21T23:22:10.536Z,16.70
2023-05-21T23:26:12.287Z,16.70
2023-05-21T23:30:14.180Z,16.60
2023-05-21T23:34:16.045Z,16.60
2023-05-21T23:38:17.805Z,16.50
2023-05-21T23:42:19.718Z,16.60
2023-05-21T23:46:21.500Z,16.40
2023-05-21T23:50:24.699Z,16.40
2023-05-21T23:54:26.895Z,16.40
2023-05-21T23:58:28.619Z,16.40
